Tk Rotterdam — A8RG8 — position and weather

sailwx.info

Track history (hours):
 
Tides and Currents Weather Stations Pressure Air Temp Water Temp Dewpoint Dewpoint Depression Visibility Wind Speed Wind Dir Waves Ship Positions

Tk Rotterdam

Last reported at 2016-May-19 16:24 UTC. Time now 2016-May-27 08:31 UTC.
Position N 40°28' E 026°50'.

Length 130 m; draft 7.8 m.

Type: Cargo ship. MMSI: 636014098.

Date/timePositionNaut miles runAvg speedWind from/ knotsBaromVisibWave heightAir tempDewpointWater temp
2016-May-19 16:24N 40°28' E 026°50'89 7.5
2016-May-19 04:32N 40°49' E 028°44'8 8.1
2016-May-19 03:33N 40°54' E 028°52'6 2.3
2016-May-19 01:12N 40°59' E 028°56'0 0.0
2016-May-19 00:26N 40°59' E 028°56'0 0.0
2016-May-18 23:32N 40°59' E 028°56'0 0.0
2016-May-18 22:33N 40°59' E 028°56'0 0.3
2016-May-18 21:33N 40°59' E 028°57'  
2016-May-16 09:27N 43°53' E 038°46'7 7.6
2016-May-16 08:33N 43°57' E 038°54'8 7.7
2016-May-16 07:33N 44°01' E 039°02'5 4.6
2016-May-16 06:33N 44°05' E 039°04'0 0.0
2016-May-16 05:31N 44°05' E 039°04'0 0.0
2016-May-16 04:31N 44°05' E 039°04'0 0.0
2016-May-16 03:33N 44°05' E 039°04'0 0.0
2016-May-16 02:33N 44°05' E 039°04'0 0.0
2016-May-16 01:32N 44°05' E 039°04'0 0.0
2016-May-16 00:31N 44°05' E 039°04'0 0.0
2016-May-15 23:31N 44°05' E 039°04'0 0.0
2016-May-15 22:33N 44°05' E 039°04'0 0.0
2016-May-15 21:33N 44°05' E 039°04'0 0.0
2016-May-15 20:32N 44°05' E 039°04'0 0.0
2016-May-15 19:31N 44°05' E 039°04'0 0.0
2016-May-15 18:31N 44°05' E 039°04'0 0.0
2016-May-15 17:33N 44°05' E 039°04'0 0.0
2016-May-15 16:33N 44°05' E 039°04'0 0.0
2016-May-15 15:32N 44°05' E 039°04'0 0.0
2016-May-15 14:32N 44°05' E 039°04'0 0.0
2016-May-15 13:31N 44°05' E 039°04'0 0.0
2016-May-15 12:33N 44°05' E 039°04'0 0.0
2016-May-15 11:33N 44°05' E 039°04'0 0.0
2016-May-15 10:32N 44°05' E 039°04'0 0.0
2016-May-15 09:29N 44°05' E 039°04'0 0.0
2016-May-15 08:31N 44°05' E 039°04'0 0.0
2016-May-15 07:33N 44°05' E 039°04'0 0.0
2016-May-15 06:33N 44°05' E 039°04'0 0.0
2016-May-15 05:32N 44°05' E 039°04'0 0.0
2016-May-15 04:32N 44°05' E 039°04'  
2016-May-10 22:17N 41°01' E 028°60'5 6.2
2016-May-10 21:31N 40°57' E 028°59'12 0.5
2016-May-09 22:26N 40°46' E 028°53'2 1.9
2016-May-09 21:16N 40°47' E 028°55'1 1.9
2016-May-09 20:33N 40°48' E 028°56'3 3.2
2016-May-09 19:34N 40°45' E 028°55'5 3.4
2016-May-09 18:07N 40°41' E 028°52'2 2.0
2016-May-09 17:19N 40°43' E 028°53'  
Track history (hours):
 
Tides and Currents Weather Stations Pressure Air Temp Water Temp Dewpoint Dewpoint Depression Visibility Wind Speed Wind Dir Waves Ship Positions

Tk Rotterdam

Last reported at 2016-May-19 16:24 UTC. Time now 2016-May-27 08:31 UTC.
Position N 40°28' E 026°50'.

Length 130 m; draft 7.8 m.

Type: Cargo ship. MMSI: 636014098.

Date/timePositionNaut miles runAvg speedWind from/ knotsBaromVisibWave heightAir tempDewpointWater temp
2016-May-19 16:24N 40°28' E 026°50'89 7.5
2016-May-19 04:32N 40°49' E 028°44'8 8.1
2016-May-19 03:33N 40°54' E 028°52'6 2.3
2016-May-19 01:12N 40°59' E 028°56'0 0.0
2016-May-19 00:26N 40°59' E 028°56'0 0.0
2016-May-18 23:32N 40°59' E 028°56'0 0.0
2016-May-18 22:33N 40°59' E 028°56'0 0.3
2016-May-18 21:33N 40°59' E 028°57'  
2016-May-16 09:27N 43°53' E 038°46'7 7.6
2016-May-16 08:33N 43°57' E 038°54'8 7.7
2016-May-16 07:33N 44°01' E 039°02'5 4.6
2016-May-16 06:33N 44°05' E 039°04'0 0.0
2016-May-16 05:31N 44°05' E 039°04'0 0.0
2016-May-16 04:31N 44°05' E 039°04'0 0.0
2016-May-16 03:33N 44°05' E 039°04'0 0.0
2016-May-16 02:33N 44°05' E 039°04'0 0.0
2016-May-16 01:32N 44°05' E 039°04'0 0.0
2016-May-16 00:31N 44°05' E 039°04'0 0.0
2016-May-15 23:31N 44°05' E 039°04'0 0.0
2016-May-15 22:33N 44°05' E 039°04'0 0.0
2016-May-15 21:33N 44°05' E 039°04'0 0.0
2016-May-15 20:32N 44°05' E 039°04'0 0.0
2016-May-15 19:31N 44°05' E 039°04'0 0.0
2016-May-15 18:31N 44°05' E 039°04'0 0.0
2016-May-15 17:33N 44°05' E 039°04'0 0.0
2016-May-15 16:33N 44°05' E 039°04'0 0.0
2016-May-15 15:32N 44°05' E 039°04'0 0.0
2016-May-15 14:32N 44°05' E 039°04'0 0.0
2016-May-15 13:31N 44°05' E 039°04'0 0.0
2016-May-15 12:33N 44°05' E 039°04'0 0.0
2016-May-15 11:33N 44°05' E 039°04'0 0.0
2016-May-15 10:32N 44°05' E 039°04'0 0.0
2016-May-15 09:29N 44°05' E 039°04'0 0.0
2016-May-15 08:31N 44°05' E 039°04'0 0.0
2016-May-15 07:33N 44°05' E 039°04'0 0.0
2016-May-15 06:33N 44°05' E 039°04'0 0.0
2016-May-15 05:32N 44°05' E 039°04'0 0.0
2016-May-15 04:32N 44°05' E 039°04'  
2016-May-10 22:17N 41°01' E 028°60'5 6.2
2016-May-10 21:31N 40°57' E 028°59'12 0.5
2016-May-09 22:26N 40°46' E 028°53'2 1.9
2016-May-09 21:16N 40°47' E 028°55'1 1.9
2016-May-09 20:33N 40°48' E 028°56'3 3.2
2016-May-09 19:34N 40°45' E 028°55'5 3.4
2016-May-09 18:07N 40°41' E 028°52'2 2.0
2016-May-09 17:19N 40°43' E 028°53'  

Dump ship's entire track history